createdAt,value
2023-01-04T00:01:25.343Z,2.60
2023-01-04T00:03:53.038Z,1.75
2023-01-04T00:06:21.695Z,1.77
2023-01-04T00:08:49.327Z,1.80
2023-01-04T00:11:19.540Z,1.63
2023-01-04T00:13:48.963Z,1.00
2023-01-04T00:16:22.193Z,1.35
2023-01-04T00:18:51.253Z,3.17
2023-01-04T00:21:24.553Z,2.53
2023-01-04T00:23:54.447Z,3.08
2023-01-04T00:26:30.342Z,4.13
2023-01-04T00:29:08.309Z,1.40
2023-01-04T00:31:36.273Z,3.47
2023-01-04T00:34:05.273Z,1.75
2023-01-04T00:36:33.744Z,3.65
2023-01-04T00:39:08.654Z,1.63
2023-01-04T00:41:58.875Z,1.00
2023-01-04T00:44:27.499Z,1.70
2023-01-04T00:46:55.007Z,2.05
2023-01-04T00:49:22.564Z,4.43
2023-01-04T00:51:50.210Z,2.10
2023-01-04T00:54:18.014Z,1.40
2023-01-04T00:56:45.591Z,1.65
2023-01-04T00:59:15.038Z,2.20
2023-01-04T01:01:43.455Z,1.90
2023-01-04T01:04:13.880Z,1.70
2023-01-04T01:06:42.066Z,1.70
2023-01-04T01:09:10.138Z,0.65
2023-01-04T01:11:39.319Z,0.77
2023-01-04T01:14:08.552Z,3.17
2023-01-04T01:16:54.414Z,2.65
2023-01-04T01:19:23.407Z,3.10
2023-01-04T01:21:50.874Z,3.85
2023-01-04T01:24:20.037Z,1.67
2023-01-04T01:26:47.518Z,3.47
2023-01-04T01:29:15.388Z,0.93
2023-01-04T01:31:43.060Z,0.85
2023-01-04T01:34:10.550Z,2.88
2023-01-04T01:36:38.285Z,0.70
2023-01-04T01:39:06.586Z,1.58
2023-01-04T01:41:36.021Z,0.98
2023-01-04T01:44:08.250Z,1.17
2023-01-04T01:46:39.068Z,0.93
2023-01-04T01:49:26.063Z,2.08
2023-01-04T01:51:56.739Z,2.75
2023-01-04T01:54:33.284Z,1.27
2023-01-04T01:57:04.734Z,3.05
2023-01-04T01:59:34.785Z,2.10
2023-01-04T02:02:02.531Z,1.10
2023-01-04T02:04:31.215Z,1.77
2023-01-04T02:07:00.094Z,0.88
2023-01-04T02:09:27.681Z,2.03
2023-01-04T02:11:55.152Z,2.20
2023-01-04T02:14:29.019Z,2.90
2023-01-04T02:17:16.921Z,0.73
2023-01-04T02:20:02.535Z,1.38
2023-01-04T02:22:42.991Z,0.95
2023-01-04T02:25:29.085Z,2.13
2023-01-04T02:28:08.611Z,3.35
2023-01-04T02:30:45.315Z,2.08
2023-01-04T02:33:39.751Z,1.75
2023-01-04T02:36:14.615Z,0.93
2023-01-04T02:38:50.957Z,1.33
2023-01-04T02:41:36.845Z,1.85
2023-01-04T02:44:25.658Z,2.33
2023-01-04T02:47:06.660Z,2.47
2023-01-04T02:49:52.326Z,2.03
2023-01-04T02:52:22.034Z,1.27
2023-01-04T02:54:53.668Z,3.22
2023-01-04T02:57:46.397Z,3.22
2023-01-04T03:01:07.997Z,1.83
2023-01-04T03:04:25.757Z,1.48
2023-01-04T03:07:09.826Z,1.05
2023-01-04T03:09:42.219Z,2.55
2023-01-04T03:12:36.203Z,1.08
2023-01-04T03:15:19.170Z,1.48
2023-01-04T03:18:15.226Z,1.05
2023-01-04T03:20:44.644Z,1.90
2023-01-04T03:23:34.939Z,1.60
2023-01-04T03:26:31.433Z,1.25
2023-01-04T03:29:23.224Z,2.03
2023-01-04T03:32:18.439Z,3.80
2023-01-04T03:35:04.755Z,2.10
2023-01-04T03:37:46.003Z,2.88
2023-01-04T03:40:45.846Z,1.67
2023-01-04T03:43:39.820Z,3.80
2023-01-04T03:47:02.271Z,2.28
2023-01-04T03:49:48.085Z,1.55
2023-01-04T03:52:17.129Z,1.98
2023-01-04T03:54:48.498Z,1.77
2023-01-04T03:57:17.311Z,1.75
2023-01-04T03:59:50.827Z,1.42
2023-01-04T04:02:24.059Z,2.33
2023-01-04T04:05:10.407Z,1.75
2023-01-04T04:07:56.134Z,2.28
2023-01-04T04:10:23.666Z,2.58
2023-01-04T04:12:52.612Z,1.08
2023-01-04T04:15:20.081Z,2.35
2023-01-04T04:17:47.570Z,0.75
2023-01-04T04:20:15.097Z,2.38
2023-01-04T04:22:42.763Z,3.33
2023-01-04T04:25:10.453Z,2.78
2023-01-04T04:27:37.959Z,1.50
2023-01-04T04:30:06.056Z,2.45
2023-01-04T04:32:33.615Z,3.65
2023-01-04T04:35:01.040Z,2.17
2023-01-04T04:37:32.319Z,1.08
2023-01-04T04:39:59.914Z,1.52
2023-01-04T04:42:27.370Z,3.95
2023-01-04T04:44:54.862Z,4.15
2023-01-04T04:47:22.485Z,0.85
2023-01-04T04:49:49.982Z,1.60
2023-01-04T04:52:17.587Z,3.63
2023-01-04T04:54:45.030Z,2.25
2023-01-04T04:57:12.536Z,1.52
2023-01-04T04:59:40.037Z,3.75
2023-01-04T05:02:07.615Z,3.03
2023-01-04T05:04:35.292Z,3.15
2023-01-04T05:07:06.342Z,3.05
2023-01-04T05:09:36.549Z,2.17
2023-01-04T05:12:22.793Z,2.70
2023-01-04T05:14:50.261Z,2.85
2023-01-04T05:17:17.735Z,2.83
2023-01-04T05:19:45.271Z,2.72
2023-01-04T05:22:12.689Z,1.27
2023-01-04T05:24:40.238Z,2.17
2023-01-04T05:27:07.726Z,1.00
2023-01-04T05:29:53.643Z,1.38
2023-01-04T05:32:21.171Z,1.25
2023-01-04T05:34:48.713Z,1.85
2023-01-04T05:37:16.117Z,2.13
2023-01-04T05:39:43.602Z,2.20
2023-01-04T05:42:26.032Z,1.00
2023-01-04T05:44:54.981Z,1.93
2023-01-04T05:47:24.532Z,2.63
2023-01-04T05:49:52.695Z,0.95
2023-01-04T05:52:20.388Z,2.28
2023-01-04T05:54:48.860Z,1.15
2023-01-04T05:57:16.717Z,0.68
2023-01-04T05:59:44.432Z,2.10
2023-01-04T06:02:21.815Z,3.35
2023-01-04T06:04:56.394Z,1.50
2023-01-04T06:07:26.097Z,3.03
2023-01-04T06:09:53.824Z,0.98
2023-01-04T06:12:21.557Z,2.78
2023-01-04T06:14:49.754Z,3.90
2023-01-04T06:17:18.418Z,1.98
2023-01-04T06:19:46.612Z,2.85
2023-01-04T06:22:15.195Z,2.13
2023-01-04T06:24:42.740Z,2.50
2023-01-04T06:27:10.409Z,1.98
2023-01-04T06:29:37.851Z,6.35
2023-01-04T06:32:05.511Z,6.88
2023-01-04T06:34:32.945Z,5.18
2023-01-04T06:37:00.813Z,6.03
2023-01-04T06:39:28.304Z,3.63
2023-01-04T06:42:01.934Z,7.07
2023-01-04T06:44:33.235Z,6.18
2023-01-04T06:47:00.868Z,5.22
2023-01-04T06:49:28.527Z,8.23
2023-01-04T06:51:56.102Z,4.45
2023-01-04T06:54:23.749Z,7.53
2023-01-04T06:56:51.384Z,10.25
2023-01-04T06:59:21.300Z,13.30
2023-01-04T07:01:49.304Z,5.78
2023-01-04T07:04:17.148Z,10.15
2023-01-04T07:06:44.686Z,9.95
2023-01-04T07:09:12.460Z,6.93
2023-01-04T07:11:40.574Z,8.38
2023-01-04T07:14:08.230Z,9.35
2023-01-04T07:16:35.899Z,5.10
2023-01-04T07:19:03.608Z,4.75
2023-01-04T07:21:31.151Z,4.82
2023-01-04T07:23:58.599Z,6.00
2023-01-04T07:26:26.244Z,4.85
2023-01-04T07:29:11.875Z,7.18
2023-01-04T07:31:39.476Z,5.38
2023-01-04T07:34:07.812Z,4.68
2023-01-04T07:36:35.349Z,2.30
2023-01-04T07:39:03.453Z,3.17
2023-01-04T07:41:31.022Z,3.00
2023-01-04T07:43:58.493Z,4.28
2023-01-04T07:46:26.037Z,5.68
2023-01-04T07:48:53.595Z,3.67
2023-01-04T07:51:21.015Z,3.20
2023-01-04T07:53:48.548Z,4.57
2023-01-04T07:56:18.914Z,4.85
2023-01-04T07:58:46.691Z,5.13
2023-01-04T08:01:17.207Z,4.38
2023-01-04T08:03:48.197Z,4.90
2023-01-04T08:06:16.891Z,2.15
2023-01-04T08:08:44.928Z,5.70
2023-01-04T08:11:25.150Z,2.28
2023-01-04T08:13:53.064Z,4.18
2023-01-04T08:16:31.925Z,3.45
2023-01-04T08:19:02.493Z,4.20
2023-01-04T08:21:32.067Z,1.30
2023-01-04T08:23:59.829Z,3.63
2023-01-04T08:26:28.704Z,5.22
2023-01-04T08:28:56.809Z,1.75
2023-01-04T08:31:27.412Z,2.72
2023-01-04T08:33:56.674Z,2.50
2023-01-04T08:36:29.701Z,3.70
2023-01-04T08:39:02.719Z,5.30
2023-01-04T08:44:24.314Z,6.15
2023-01-04T08:46:53.450Z,4.70
2023-01-04T08:49:22.804Z,3.00
2023-01-04T08:51:50.612Z,7.07
2023-01-04T08:54:18.423Z,2.28
2023-01-04T08:56:45.962Z,2.55
2023-01-04T08:59:14.031Z,2.55
2023-01-04T09:01:42.055Z,3.53
2023-01-04T09:04:10.432Z,3.08
2023-01-04T09:06:39.017Z,4.05
2023-01-04T09:09:06.659Z,2.65
2023-01-04T09:11:35.527Z,5.20
2023-01-04T09:14:07.733Z,3.53
2023-01-04T09:16:37.874Z,2.92
2023-01-04T09:19:06.511Z,2.83
2023-01-04T09:21:34.281Z,3.10
2023-01-04T09:24:01.904Z,3.88
2023-01-04T09:26:29.402Z,4.90
2023-01-04T09:28:57.355Z,2.60
2023-01-04T09:31:29.667Z,4.63
2023-01-04T09:34:16.600Z,1.83
2023-01-04T09:36:46.811Z,4.43
2023-01-04T09:39:23.926Z,3.42
2023-01-04T09:42:04.390Z,3.08
2023-01-04T09:48:01.398Z,4.75
2023-01-04T09:50:41.040Z,4.50
2023-01-04T09:53:23.843Z,2.38
2023-01-04T09:55:54.951Z,4.10
2023-01-04T09:58:36.024Z,4.72
2023-01-04T10:01:12.183Z,4.82
2023-01-04T10:03:42.547Z,3.17
2023-01-04T10:06:12.901Z,2.80
2023-01-04T10:08:42.835Z,2.72
2023-01-04T10:11:46.096Z,2.47
2023-01-04T10:15:08.333Z,3.28
2023-01-04T10:21:31.547Z,1.60
2023-01-04T10:24:08.624Z,3.47
2023-01-04T10:27:21.868Z,7.80
2023-01-04T10:30:28.088Z,1.42
2023-01-04T10:33:21.649Z,5.13
2023-01-04T10:35:50.206Z,5.20
2023-01-04T10:38:24.153Z,4.70
2023-01-04T10:40:51.801Z,2.58
2023-01-04T10:43:22.535Z,3.30
2023-01-04T10:46:05.115Z,4.35
2023-01-04T10:49:04.384Z,2.60
2023-01-04T10:51:42.432Z,4.88
2023-01-04T10:54:27.577Z,8.05
2023-01-04T10:57:26.506Z,6.63
2023-01-04T11:00:01.445Z,12.93
2023-01-04T11:02:55.626Z,6.47
2023-01-04T11:05:41.960Z,7.63
2023-01-04T11:08:29.140Z,11.18
2023-01-04T11:11:04.587Z,5.47
2023-01-04T11:13:32.235Z,4.13
2023-01-04T11:16:01.786Z,5.32
2023-01-04T11:18:29.906Z,3.75
2023-01-04T11:20:58.164Z,4.43
2023-01-04T11:23:26.017Z,12.80
2023-01-04T11:25:59.145Z,5.95
2023-01-04T11:28:51.952Z,7.75
2023-01-04T11:31:41.159Z,9.77
2023-01-04T11:34:08.700Z,7.05
2023-01-04T11:36:47.743Z,10.57
2023-01-04T11:39:24.163Z,13.35
2023-01-04T11:42:04.931Z,25.88
2023-01-04T11:44:34.734Z,43.63
2023-01-04T11:47:17.487Z,20.73
2023-01-04T11:49:45.367Z,26.17
2023-01-04T11:52:33.023Z,22.60
2023-01-04T11:55:31.674Z,20.65
2023-01-04T11:58:13.545Z,13.68
2023-01-04T12:00:58.010Z,12.38
2023-01-04T12:03:32.548Z,12.02
2023-01-04T12:06:00.240Z,12.20
2023-01-04T12:08:27.633Z,9.45
2023-01-04T12:10:55.740Z,17.10
2023-01-04T12:13:23.755Z,12.82
2023-01-04T12:15:57.090Z,11.50
2023-01-04T12:18:31.105Z,16.23
2023-01-04T12:20:59.001Z,2.40
2023-01-04T12:23:26.663Z,15.57
2023-01-04T12:25:55.434Z,6.30
2023-01-04T12:28:32.451Z,15.13
2023-01-04T12:31:22.287Z,11.57
2023-01-04T12:33:52.010Z,8.50
2023-01-04T12:36:21.511Z,11.50
2023-01-04T12:38:55.230Z,9.38
2023-01-04T12:42:00.771Z,3.90
2023-01-04T12:44:39.041Z,6.45
2023-01-04T12:47:37.103Z,13.63
2023-01-04T12:50:12.129Z,5.90
2023-01-04T12:55:33.285Z,3.72
2023-01-04T12:58:02.743Z,6.28
2023-01-04T13:00:52.004Z,10.40
2023-01-04T13:03:21.928Z,14.38
2023-01-04T13:06:03.404Z,17.58
2023-01-04T13:08:36.008Z,24.90
2023-01-04T13:11:07.750Z,14.10
2023-01-04T13:13:52.977Z,8.48
2023-01-04T13:16:32.647Z,11.93
2023-01-04T13:19:03.169Z,6.00
2023-01-04T13:21:42.466Z,6.82
2023-01-04T13:24:22.984Z,7.28
2023-01-04T13:26:52.202Z,6.90
2023-01-04T13:29:30.957Z,4.10
2023-01-04T13:32:30.088Z,8.88
2023-01-04T13:35:01.672Z,5.03
2023-01-04T13:37:35.263Z,1.92
2023-01-04T13:44:15.698Z,3.75
2023-01-04T13:46:44.275Z,11.38
2023-01-04T13:49:16.463Z,9.48
2023-01-04T13:51:43.946Z,14.95
2023-01-04T13:54:21.157Z,9.35
2023-01-04T13:56:55.501Z,3.72
2023-01-04T13:59:23.782Z,15.48
2023-01-04T14:01:51.931Z,23.98
2023-01-04T14:04:34.758Z,12.90
2023-01-04T14:07:02.907Z,18.25
2023-01-04T14:09:36.129Z,9.88
2023-01-04T14:12:15.998Z,12.13
2023-01-04T14:15:00.038Z,9.80
2023-01-04T14:17:33.863Z,4.10
2023-01-04T14:22:33.365Z,11.60
2023-01-04T14:25:21.765Z,8.95
2023-01-04T14:27:49.348Z,5.28
2023-01-04T14:30:26.864Z,9.57
2023-01-04T14:33:01.083Z,4.85
2023-01-04T14:35:30.684Z,6.82
2023-01-04T14:38:11.334Z,14.27
2023-01-04T14:40:39.517Z,23.95
2023-01-04T14:43:36.464Z,21.17
2023-01-04T14:46:04.039Z,18.70
2023-01-04T14:48:31.731Z,8.15
2023-01-04T14:51:00.974Z,10.85
2023-01-04T14:53:28.611Z,8.00
2023-01-04T14:55:56.159Z,3.28
2023-01-04T14:58:23.851Z,11.45
2023-01-04T15:00:51.368Z,12.18
2023-01-04T15:03:19.166Z,8.60
2023-01-04T15:05:47.105Z,10.43
2023-01-04T15:08:14.724Z,5.38
2023-01-04T15:10:42.121Z,5.38
2023-01-04T15:13:09.731Z,4.88
2023-01-04T15:15:44.613Z,6.00
2023-01-04T15:18:12.619Z,6.00
2023-01-04T15:20:41.376Z,7.70
2023-01-04T15:23:09.315Z,6.05
2023-01-04T15:25:40.153Z,4.28
2023-01-04T15:28:08.610Z,7.25
2023-01-04T15:30:42.686Z,5.15
2023-01-04T15:33:11.123Z,9.23
2023-01-04T15:35:38.632Z,3.95
2023-01-04T15:38:06.837Z,5.18
2023-01-04T15:40:36.092Z,13.90
2023-01-04T15:43:03.900Z,9.88
2023-01-04T15:45:43.519Z,10.35
2023-01-04T15:48:12.952Z,5.40
2023-01-04T15:50:41.395Z,6.25
2023-01-04T15:53:12.270Z,11.60
2023-01-04T15:55:42.821Z,12.88
2023-01-04T15:58:10.446Z,13.15
2023-01-04T16:00:38.467Z,14.70
2023-01-04T16:03:09.059Z,10.80
2023-01-04T16:05:36.691Z,6.93
2023-01-04T16:08:04.431Z,10.20
2023-01-04T16:10:32.023Z,8.63
2023-01-04T16:12:59.504Z,2.88
2023-01-04T16:15:27.023Z,4.80
2023-01-04T16:17:54.735Z,9.23
2023-01-04T16:20:22.886Z,14.45
2023-01-04T16:22:50.536Z,12.45
2023-01-04T16:25:18.269Z,11.93
2023-01-04T16:27:45.917Z,5.10
2023-01-04T16:30:14.756Z,11.68
2023-01-04T16:32:44.278Z,13.55
2023-01-04T16:35:12.471Z,9.02
2023-01-04T16:37:43.255Z,7.28
2023-01-04T16:40:11.559Z,8.80
2023-01-04T16:42:40.577Z,6.57
2023-01-04T16:45:08.672Z,8.18
2023-01-04T16:47:43.997Z,4.80
2023-01-04T16:50:12.932Z,6.85
2023-01-04T16:52:41.081Z,6.45
2023-01-04T16:55:09.394Z,7.88
2023-01-04T16:57:36.863Z,7.00
2023-01-04T17:00:05.623Z,9.15
2023-01-04T17:02:36.052Z,8.98
2023-01-04T17:05:04.738Z,6.40
2023-01-04T17:07:35.312Z,7.68
2023-01-04T17:10:02.904Z,3.67
2023-01-04T17:12:48.551Z,7.57
2023-01-04T17:18:05.489Z,5.35
2023-01-04T17:20:33.077Z,10.52
2023-01-04T17:23:00.546Z,7.88
2023-01-04T17:25:28.037Z,3.55
2023-01-04T17:27:55.587Z,7.75
2023-01-04T17:30:23.177Z,7.63
2023-01-04T17:32:50.798Z,4.57
2023-01-04T17:35:18.206Z,3.75
2023-01-04T17:37:45.818Z,4.30
2023-01-04T17:40:16.345Z,6.00
2023-01-04T17:42:48.281Z,4.97
2023-01-04T17:45:15.852Z,7.15
2023-01-04T17:47:43.470Z,3.22
2023-01-04T17:50:11.276Z,7.60
2023-01-04T17:52:38.791Z,6.30
2023-01-04T17:55:06.958Z,6.03
2023-01-04T17:57:36.018Z,3.67
2023-01-04T18:00:07.938Z,5.43
2023-01-04T18:02:36.631Z,17.95
2023-01-04T18:05:15.268Z,5.38
2023-01-04T18:07:42.963Z,7.93
2023-01-04T18:10:20.725Z,6.10
2023-01-04T18:12:48.816Z,5.82
2023-01-04T18:15:16.515Z,5.20
2023-01-04T18:17:44.066Z,9.00
2023-01-04T18:20:15.522Z,7.60
2023-01-04T18:22:43.256Z,7.10
2023-01-04T18:25:14.620Z,4.18
2023-01-04T18:27:43.820Z,6.93
2023-01-04T18:30:11.915Z,2.80
2023-01-04T18:32:39.486Z,4.68
2023-01-04T18:35:08.708Z,6.85
2023-01-04T18:37:37.310Z,4.75
2023-01-04T18:40:05.531Z,5.70
2023-01-04T18:42:33.276Z,3.50
2023-01-04T18:45:00.775Z,2.17
2023-01-04T18:47:30.261Z,2.78
2023-01-04T18:49:57.729Z,5.20
2023-01-04T18:52:25.765Z,6.68
2023-01-04T18:54:53.242Z,2.05
2023-01-04T18:57:20.755Z,3.35
2023-01-04T18:59:50.497Z,1.92
2023-01-04T19:02:20.055Z,4.45
2023-01-04T19:04:47.727Z,3.00
2023-01-04T19:07:15.306Z,4.22
2023-01-04T19:09:43.107Z,3.28
2023-01-04T19:12:10.845Z,2.33
2023-01-04T19:14:38.319Z,2.58
2023-01-04T19:17:05.991Z,3.83
2023-01-04T19:19:34.088Z,1.92
2023-01-04T19:22:01.923Z,2.45
2023-01-04T19:24:29.540Z,1.73
2023-01-04T19:27:03.117Z,2.75
2023-01-04T19:31:59.251Z,3.08
2023-01-04T19:34:26.801Z,3.88
2023-01-04T19:36:56.742Z,4.20
2023-01-04T19:39:24.240Z,5.63
2023-01-04T19:41:51.774Z,2.95
2023-01-04T19:44:19.577Z,4.30
2023-01-04T19:46:48.396Z,2.30
2023-01-04T19:49:16.021Z,6.55
2023-01-04T19:51:47.452Z,4.13
2023-01-04T19:54:24.990Z,4.50
2023-01-04T19:56:59.918Z,8.90
2023-01-04T19:59:27.427Z,1.67
2023-01-04T20:02:06.696Z,3.90
2023-01-04T20:04:37.795Z,4.15
2023-01-04T20:07:05.417Z,2.63
2023-01-04T20:09:34.780Z,8.85
2023-01-04T20:12:02.372Z,1.83
2023-01-04T20:14:30.680Z,3.50
2023-01-04T20:16:58.401Z,4.97
2023-01-04T20:19:25.976Z,2.70
2023-01-04T20:21:53.508Z,2.33
2023-01-04T20:24:21.164Z,1.30
2023-01-04T20:26:48.777Z,3.78
2023-01-04T20:29:16.364Z,3.25
2023-01-04T20:31:45.870Z,1.98
2023-01-04T20:34:14.529Z,3.03
2023-01-04T20:36:42.165Z,4.32
2023-01-04T20:39:09.743Z,1.23
2023-01-04T20:41:37.217Z,2.78
2023-01-04T20:44:04.941Z,1.95
2023-01-04T20:46:33.370Z,1.58
2023-01-04T20:49:01.869Z,2.10
2023-01-04T20:51:31.080Z,1.45
2023-01-04T20:54:02.228Z,2.75
2023-01-04T20:56:31.764Z,1.13
2023-01-04T20:58:59.227Z,2.95
2023-01-04T21:01:26.893Z,0.73
2023-01-04T21:03:54.606Z,4.07
2023-01-04T21:06:25.569Z,1.63
2023-01-04T21:08:55.338Z,7.07
2023-01-04T21:11:23.786Z,1.30
2023-01-04T21:13:52.420Z,2.72
2023-01-04T21:16:20.079Z,1.63
2023-01-04T21:18:47.753Z,2.65
2023-01-04T21:21:17.912Z,1.30
2023-01-04T21:23:46.525Z,10.40
2023-01-04T21:26:16.879Z,2.70
2023-01-04T21:28:45.257Z,3.60
2023-01-04T21:31:18.376Z,1.90
2023-01-04T21:33:46.677Z,1.70
2023-01-04T21:36:17.013Z,4.13
2023-01-04T21:38:44.698Z,2.15
2023-01-04T21:41:14.895Z,2.83
2023-01-04T21:43:43.287Z,2.28
2023-01-04T21:46:15.941Z,3.13
2023-01-04T21:48:47.508Z,2.03
2023-01-04T21:51:15.808Z,1.15
2023-01-04T21:53:43.295Z,2.35
2023-01-04T21:56:17.282Z,2.08
2023-01-04T21:58:45.220Z,3.50
2023-01-04T22:01:16.803Z,4.60
2023-01-04T22:03:44.421Z,3.90
2023-01-04T22:06:14.323Z,2.35
2023-01-04T22:08:46.742Z,1.15
2023-01-04T22:11:16.138Z,0.50
2023-01-04T22:13:44.638Z,1.23
2023-01-04T22:16:16.733Z,1.58
2023-01-04T22:18:48.896Z,2.58
2023-01-04T22:21:19.538Z,1.05
2023-01-04T22:23:47.080Z,1.08
2023-01-04T22:26:14.515Z,2.20
2023-01-04T22:28:42.209Z,4.70
2023-01-04T22:31:12.054Z,4.78
2023-01-04T22:33:39.902Z,3.83
2023-01-04T22:36:17.398Z,0.73
2023-01-04T22:38:49.457Z,2.65
2023-01-04T22:41:19.280Z,1.27
2023-01-04T22:43:47.345Z,0.82
2023-01-04T22:46:18.343Z,3.30
2023-01-04T22:48:46.456Z,1.25
2023-01-04T22:51:16.766Z,3.13
2023-01-04T22:53:44.449Z,1.45
2023-01-04T22:56:23.034Z,1.83
2023-01-04T22:58:54.625Z,4.13
2023-01-04T23:01:29.229Z,1.15
2023-01-04T23:03:58.796Z,0.68
2023-01-04T23:06:28.156Z,1.25
2023-01-04T23:08:57.682Z,4.30
2023-01-04T23:11:27.198Z,1.27
2023-01-04T23:13:55.389Z,1.55
2023-01-04T23:16:29.532Z,3.38
2023-01-04T23:18:59.846Z,0.40
2023-01-04T23:21:27.556Z,1.50
2023-01-04T23:23:55.069Z,1.85
2023-01-04T23:26:24.797Z,7.55
2023-01-04T23:28:53.117Z,8.02
2023-01-04T23:31:23.576Z,2.45
2023-01-04T23:33:57.102Z,2.88
2023-01-04T23:36:31.719Z,3.50
2023-01-04T23:39:01.612Z,2.60
2023-01-04T23:41:45.185Z,1.48
2023-01-04T23:44:20.536Z,1.63
2023-01-04T23:46:58.748Z,1.50
2023-01-04T23:49:28.253Z,2.38
2023-01-04T23:51:56.609Z,1.33
2023-01-04T23:54:24.877Z,2.22
2023-01-04T23:56:52.528Z,1.73
2023-01-04T23:59:20.745Z,0.55
